ポートオブスペイン の空港の天気 - METARとTAF

ピアルコ国際空港(ポートオブスペイン) ( TTPP / POS ) - トリニダード・トバゴ ポートオブスペイン (トリニダード島)
飛行場実況気象(Metar)
観測時間07/16 02:00 AST (07/16 06:00 UTC)
風向・風速南南東 2m/s
視程10km以上
天気現象周辺でしゅう雨
少しの雲 雲底高度 490m
気温25℃
湿度94%
気圧1014hPa
METARTTPP 160600Z 15003KT 9999 VCSH FEW016 25/24 Q1014 NOSIG RMK VCSH NE
過去の天気等 Google飛行場航空写真 Wunderground天気予報

過去48時間のMETAR

飛行場予報(TAF)
発表時間: 7/16 00:00 AST (7/16 04:00 UTC)
予報対象時間: 16日2時 AST ~ 17日2時 AST
風向・風速東南東 3m/s
視程10km以上
少しの雲 雲底高度 550m
16日7時 AST ~ 16日9時 AST に徐々に
風向・風速東南東 8m/s
全天の4割程度の雲 雲底高度 610m
16日11時 AST ~ 16日17時 AST に 確率 40% で一時的に
視程5000m
天気現象しゅう雨 周辺でしゅう雨
少しの積乱雲 雲底高度 300m
全天の8割程度の雲 雲底高度 460m
16日20時 AST ~ 16日22時 AST に徐々に
風向・風速東 3m/s
少しの雲 雲底高度 460m
TAF TTPP 160400Z 1606/1706 11005KT 9999 FEW018
BECMG 1611/1613 11015KT SCT020
PROB40 TEMPO 1615/1621 5000 SHRA VCSH FEW010CB BKN015
BECMG 1700/1702 09005KT FEW015